Terminal Aerodrome Forecast
Issued by NWS Boise, ID

Home | Current Version | Previous Version | Text Only | Print | Product List | Glossary On
Versions: 1 2 3 4 5 6 7 8 9 10 11 12 13 14
000
FTUS45 KBOI 202334
TAFBOI
TAF
KBOI 202334Z 2100/2124 31010KT P6SM -SHRA BKN050 OVC100
     FM210600 VRB06KT P6SM SCT060
     FM211600 13011KT P6SM -RA OVC040=

USA.gov is the U.S. government's official web portal to all federal, state and local government web resources and services.